Tropical Cyclones
[Index]
Main Index Home Page Stock Weather Photos Extreme Storms Discussion Storm News and Storm Chasing Reports Tropical Cyclones / Hurricanes / Typhoons Weather Data and Links Wild Fires / Bushfires Weather Observation Techniques Weather Picture Catalogue Tornado Pictures and Reports Stock Video Footage and DVDs for sale
Season 2010-2011 Tropical Cyclone VANIA Track Map
Season 2010-2011 Summaries: [BoM-AU] [JTWC-AU] [JTWC-SIO] [JTWC-SPAC] [JTWC-SH]
<<- Previous TC | JTWC 2010-2011 Season | Next TC ->>

click for intensity scale information  Lat/long Grid: Show Hide

 Date Labels: Show Hide

Joint Typhoon Warning Centre Cyclone Data

Name: VANIA

11 Jan 2011 00:00 UTC to 15 Jan 2011 18:00 UTC

    date/time    lat    long     hPa   cat  kts
2011-01-11 00   17.9   169.7    1007         20          
2011-01-11 06   18.2   169.8    1004         25          
2011-01-11 12   18.4   169.8    1000         30          
2011-01-11 18   18.7   169.7     996         35          
2011-01-12 00   18.8   169.5     993    1    40          
2011-01-12 06   19.0   169.3     989    1    45          
2011-01-12 12   19.1   169.0     985    1    50          
2011-01-12 18   19.4   168.8     985    1    50          
2011-01-12 18   19.4   168.8     985    1    50          
2011-01-13 00   19.7   168.2     982    2    55          
2011-01-13 00   19.7   168.2     982    2    55          
2011-01-13 06   19.9   167.5     982    2    55          
2011-01-13 06   19.9   167.5     982    2    55          
2011-01-13 12   20.4   167.3     982    2    55          
2011-01-13 12   20.4   167.3     982    2    55          
2011-01-13 18   21.0   167.2     982    2    55          
2011-01-13 18   21.0   167.2     982    2    55          
2011-01-14 00   21.6   167.2     985    1    50          
2011-01-14 00   21.6   167.2     985    1    50          
2011-01-14 06   21.8   167.1     989    1    45          
2011-01-14 12   21.7   166.9     997    1    45          
2011-01-14 18   23.0   167.5     993    1    40          
2011-01-15 00   24.5   167.2     996         35          
2011-01-15 06   25.7   166.6     996         35          
2011-01-15 12   26.8   166.0    1000         30          
2011-01-15 18   27.9   165.3    1000         30          
Winds are 1-min average.

Tropical cyclone tracks developed by Michael Bath using data from the Joint Typhoon Warning Centre Best Tracks and Google Maps.


[Australian Severe Weather index] [Copyright Notice] [Email Contacts] [Search This Site] [Privacy Policy]
Document: tropical_cyclone_vania.htm Updated: 28 June 2017